Time;durP1;ratioP1;P1;durP2;ratioP2;P2;SDS_P1;SDS_P2;PMS_P1;PMS_P2;Temp;Humidity;BMP_temperature;BMP_pressure;BME280_temperature;BME280_humidity;BME280_pressure;Samples;Min_cycle;Max_cycle;Signal;HPM_P1;HPM_P2
2024/04/11 00:01:39;;;;;;;13.82;2.05;;;10.00;1.00;;;;;;5489520;26;20224;-87
2024/04/11 00:04:05;;;;;;;15.10;1.88;;;10.00;1.00;;;;;;5487669;26;20216;-87
2024/04/11 00:06:31;;;;;;;17.53;1.47;;;10.00;1.00;;;;;;5490047;26;20242;-87
2024/04/11 00:08:57;;;;;;;16.80;1.63;;;10.00;1.00;;;;;;5487698;26;20438;-87
2024/04/11 00:11:23;;;;;;;13.67;1.60;;;10.00;1.00;;;;;;5487844;26;20216;-87
2024/04/11 00:13:49;;;;;;;12.90;1.60;;;9.90;1.00;;;;;;5487663;26;20220;-87
2024/04/11 00:16:22;;;;;;;13.30;1.30;;;9.90;1.00;;;;;;5489548;26;20798;-88
2024/04/11 00:18:58;;;;;;;12.88;1.20;;;10.00;1.00;;;;;;5489502;26;20555;-87
2024/04/11 00:21:34;;;;;;;14.48;1.63;;;10.00;1.00;;;;;;5487759;26;20224;-87
2024/04/11 00:24:08;;;;;;;13.77;1.48;;;10.00;1.00;;;;;;5489484;26;20215;-87
2024/04/11 00:26:45;;;;;;;16.08;1.45;;;10.00;1.00;;;;;;5489091;26;20249;-86
2024/04/11 00:29:21;;;;;;;15.15;1.80;;;10.00;1.00;;;;;;5487311;26;20215;-87
2024/04/11 00:31:47;;;;;;;15.80;1.42;;;10.00;1.00;;;;;;5487339;26;20604;-86
2024/04/11 00:34:26;;;;;;;14.83;1.40;;;9.90;1.00;;;;;;5489113;26;20220;-87
2024/04/11 00:37:01;;;;;;;15.07;1.65;;;10.00;1.00;;;;;;5489191;26;20212;-86
2024/04/11 00:39:31;;;;;;;15.95;1.60;;;10.00;1.00;;;;;;5489174;26;20212;-87
2024/04/11 00:41:56;;;;;;;16.45;1.80;;;10.00;1.00;;;;;;5488934;26;20223;-86
2024/04/11 00:44:29;;;;;;;16.03;2.27;;;10.00;1.00;;;;;;5489464;26;20212;-86
2024/04/11 00:46:57;;;;;;;14.60;1.70;;;9.90;1.00;;;;;;5492554;26;20212;-86
2024/04/11 00:49:23;;;;;;;13.80;1.70;;;10.00;1.00;;;;;;5492272;26;20208;-86
2024/04/11 00:51:50;;;;;;;18.48;1.90;;;10.00;1.00;;;;;;5492650;26;20743;-86
2024/04/11 00:54:25;;;;;;;15.50;1.70;;;10.00;1.00;;;;;;5492738;26;20220;-86
2024/04/11 00:56:57;;;;;;;14.88;1.50;;;10.00;1.00;;;;;;5490576;26;20215;-87
2024/04/11 00:59:24;;;;;;;14.85;1.90;;;9.90;1.00;;;;;;5461687;26;20256;-86
2024/04/11 01:01:49;;;;;;;16.83;1.60;;;9.90;1.00;;;;;;5490217;26;20741;-86
2024/04/11 01:04:15;;;;;;;16.60;1.80;;;9.80;1.00;;;;;;5490461;26;20300;-86
2024/04/11 01:09:47;;;;;;;15.02;1.83;;;9.70;1.00;;;;;;5492112;26;20521;-85
2024/04/11 01:12:16;;;;;;;17.55;1.83;;;9.70;1.00;;;;;;5492060;26;20644;-86
2024/04/11 01:14:58;;;;;;;14.35;1.75;;;9.60;1.00;;;;;;5492082;26;20689;-86
2024/04/11 01:17:30;;;;;;;13.77;1.67;;;9.60;1.00;;;;;;5489639;26;20212;-87
2024/04/11 01:19:56;;;;;;;13.30;1.52;;;9.60;1.00;;;;;;5490235;26;20235;-87
2024/04/11 01:22:22;;;;;;;16.87;3.00;;;9.60;1.00;;;;;;5490318;26;20232;-85
2024/04/11 01:24:47;;;;;;;15.20;2.10;;;9.60;1.00;;;;;;5492229;26;20213;-87
2024/04/11 01:27:16;;;;;;;17.20;1.70;;;9.50;1.00;;;;;;5492196;26;20208;-85
2024/04/11 01:29:42;;;;;;;15.40;1.38;;;9.50;1.00;;;;;;5491850;26;20220;-86
2024/04/11 01:32:08;;;;;;;13.27;1.50;;;9.50;1.00;;;;;;5491767;26;20236;-86
2024/04/11 01:34:34;;;;;;;13.93;1.67;;;9.50;1.00;;;;;;5490025;26;20212;-86
2024/04/11 01:37:00;;;;;;;13.25;1.40;;;9.60;1.00;;;;;;5491688;26;20445;-86
2024/04/11 01:39:26;;;;;;;12.70;1.25;;;9.60;1.00;;;;;;5489888;26;20259;-86
2024/04/11 01:41:53;;;;;;;14.82;1.65;;;9.60;1.00;;;;;;5491652;26;20599;-86
2024/04/11 01:44:20;;;;;;;13.02;1.45;;;9.60;1.00;;;;;;5491722;26;20247;-86
2024/04/11 01:46:46;;;;;;;14.57;1.50;;;9.60;1.00;;;;;;5491511;26;20316;-86
2024/04/11 01:49:13;;;;;;;12.60;1.20;;;9.50;1.00;;;;;;5491718;26;20208;-86
2024/04/11 01:51:41;;;;;;;14.30;1.20;;;9.50;1.00;;;;;;5491491;26;20453;-86
2024/04/11 01:54:07;;;;;;;16.05;1.70;;;9.60;1.00;;;;;;5491887;26;20677;-86
2024/04/11 01:57:06;;;;;;;15.60;1.50;;;9.60;1.00;;;;;;5490566;26;20238;-86
2024/04/11 01:59:34;;;;;;;15.35;1.95;;;9.60;1.00;;;;;;5462903;26;20245;-86
2024/04/11 02:02:07;;;;;;;14.77;1.40;;;9.60;1.00;;;;;;5487166;26;20251;-86
2024/04/11 02:04:36;;;;;;;14.10;1.50;;;9.60;1.00;;;;;;5491739;26;20220;-86
2024/04/11 02:07:05;;;;;;;14.27;1.58;;;9.60;1.00;;;;;;5491283;26;20272;-85
2024/04/11 02:09:49;;;;;;;12.70;1.10;;;9.60;1.00;;;;;;5489377;26;20591;-86
2024/04/11 02:12:16;;;;;;;12.65;1.48;;;9.50;1.00;;;;;;5491191;26;20220;-85
2024/04/11 02:14:48;;;;;;;13.60;1.50;;;9.50;1.00;;;;;;5489367;26;20251;-86
2024/04/11 02:17:24;;;;;;;12.95;1.23;;;9.50;1.00;;;;;;5489459;26;20212;-86
2024/04/11 02:19:53;;;;;;;13.00;1.15;;;9.40;1.00;;;;;;5491503;26;20211;-86
2024/04/11 02:22:24;;;;;;;13.68;1.52;;;9.50;1.00;;;;;;5491169;26;20328;-86
2024/04/11 02:24:50;;;;;;;13.75;1.20;;;9.40;1.00;;;;;;5491147;26;20212;-85
2024/04/11 02:27:29;;;;;;;16.00;1.20;;;9.50;1.00;;;;;;5489285;26;20258;-85
2024/04/11 02:29:58;;;;;;;14.35;1.52;;;9.50;1.00;;;;;;5491020;26;20623;-86
2024/04/11 02:32:25;;;;;;;13.30;1.40;;;9.40;1.00;;;;;;5489010;26;20258;-85
2024/04/11 02:34:51;;;;;;;13.82;1.50;;;9.30;1.00;;;;;;5490957;26;20276;-85
2024/04/11 02:37:22;;;;;;;14.90;1.47;;;9.30;1.00;;;;;;5490818;26;20741;-86
2024/04/11 02:39:47;;;;;;;14.95;1.98;;;9.30;1.00;;;;;;5490758;26;20685;-86
2024/04/11 02:42:13;;;;;;;14.07;2.10;;;9.20;1.00;;;;;;5490480;26;20263;-86
2024/04/11 02:44:40;;;;;;;13.27;1.70;;;9.20;1.00;;;;;;5490794;26;20216;-86
2024/04/11 02:47:16;;;;;;;13.10;1.67;;;9.30;1.00;;;;;;5490595;26;20208;-86
2024/04/11 02:49:50;;;;;;;19.98;1.92;;;9.20;1.00;;;;;;5489215;26;20220;-86
2024/04/11 02:52:22;;;;;;;16.30;2.20;;;9.20;1.00;;;;;;5490999;26;20768;-86
2024/04/11 02:54:48;;;;;;;15.38;2.67;;;9.10;1.00;;;;;;5489020;26;20219;-86
2024/04/11 02:57:19;;;;;;;14.90;1.73;;;9.20;1.00;;;;;;5488822;26;20216;-86
2024/04/11 03:00:08;;;;;;;19.92;1.90;;;9.10;1.00;;;;;;5490506;26;20445;-85
2024/04/11 03:02:44;;;;;;;13.95;1.73;;;9.20;1.00;;;;;;5490342;26;20286;-86
2024/04/11 03:05:12;;;;;;;16.48;2.08;;;9.20;1.00;;;;;;5490448;26;20280;-86
2024/04/11 03:07:51;;;;;;;15.98;2.08;;;9.20;1.00;;;;;;5488404;26;20220;-86
2024/04/11 03:10:17;;;;;;;16.15;2.20;;;9.20;1.00;;;;;;5490331;26;20259;-86
2024/04/11 03:12:43;;;;;;;13.57;1.50;;;9.30;1.00;;;;;;5490386;26;20224;-86
2024/04/11 03:15:09;;;;;;;13.50;1.75;;;9.20;1.00;;;;;;5490514;26;20795;-86
2024/04/11 03:17:39;;;;;;;13.65;1.98;;;9.20;1.00;;;;;;5490932;26;20208;-86
2024/04/11 03:20:05;;;;;;;16.20;2.38;;;9.20;1.00;;;;;;5490453;26;20213;-86
2024/04/11 03:22:31;;;;;;;16.40;2.03;;;9.10;1.00;;;;;;5490221;26;20220;-86
2024/04/11 03:24:57;;;;;;;14.80;2.27;;;9.10;1.00;;;;;;5490377;26;20277;-86
2024/04/11 03:27:26;;;;;;;14.77;1.65;;;9.20;1.00;;;;;;5488398;26;20220;-86
2024/04/11 03:29:52;;;;;;;13.70;1.45;;;9.20;1.00;;;;;;5488108;26;20220;-86
2024/04/11 03:32:17;;;;;;;15.23;2.67;;;9.20;1.00;;;;;;5489962;26;20315;-86
2024/04/11 03:34:43;;;;;;;15.50;2.20;;;9.10;1.00;;;;;;5488244;26;20215;-85
2024/04/11 03:37:11;;;;;;;14.80;2.10;;;9.10;1.00;;;;;;5488186;26;20555;-86
2024/04/11 03:39:38;;;;;;;17.90;2.78;;;9.10;1.00;;;;;;5489949;26;20207;-87
2024/04/11 03:42:04;;;;;;;14.00;1.92;;;9.10;1.00;;;;;;5490085;26;20538;-86
2024/04/11 03:44:29;;;;;;;12.93;1.40;;;9.10;1.00;;;;;;5489917;26;20324;-86
2024/04/11 03:47:06;;;;;;;14.77;1.67;;;9.10;1.00;;;;;;5489864;26;20213;-85
2024/04/11 03:49:38;;;;;;;13.40;1.50;;;9.10;1.00;;;;;;5488102;26;20241;-85
2024/04/11 03:52:05;;;;;;;14.55;1.88;;;9.00;1.00;;;;;;5489728;26;20221;-86
2024/04/11 03:54:35;;;;;;;15.70;1.73;;;9.00;1.00;;;;;;5489815;26;20697;-86
2024/04/11 03:57:07;;;;;;;16.83;2.13;;;9.00;1.00;;;;;;5489918;26;20318;-85
2024/04/11 03:59:32;;;;;;;16.30;2.05;;;9.00;1.00;;;;;;5490087;26;20280;-86
2024/04/11 04:01:58;;;;;;;19.90;2.40;;;8.90;1.00;;;;;;5489579;26;20220;-85
2024/04/11 04:04:24;;;;;;;13.90;1.50;;;9.00;1.00;;;;;;5489651;26;20773;-86
2024/04/11 04:06:52;;;;;;;15.63;2.40;;;9.00;1.00;;;;;;5489543;26;20293;-85
2024/04/11 04:09:21;;;;;;;15.07;2.30;;;8.90;1.00;;;;;;5487600;26;20618;-85
2024/04/11 04:11:46;;;;;;;14.32;2.28;;;9.00;1.00;;;;;;5487737;26;20223;-86
2024/04/11 04:14:13;;;;;;;15.70;1.97;;;9.00;1.00;;;;;;5489527;26;20210;-85
2024/04/11 04:16:39;;;;;;;15.98;2.60;;;9.00;1.00;;;;;;5487110;26;20297;-86
2024/04/11 04:19:07;;;;;;;17.23;2.70;;;9.00;1.00;;;;;;5488879;26;20634;-86
2024/04/11 04:21:35;;;;;;;16.42;2.70;;;9.00;1.00;;;;;;5487423;26;20236;-86
2024/04/11 04:24:05;;;;;;;13.48;1.88;;;9.00;1.00;;;;;;5485895;26;20238;-85
2024/04/11 04:26:34;;;;;;;14.57;1.92;;;9.00;1.00;;;;;;5489375;26;20259;-87
2024/04/11 04:29:00;;;;;;;15.43;2.25;;;9.00;1.00;;;;;;5487251;26;20216;-86
2024/04/11 04:31:37;;;;;;;16.30;2.47;;;9.00;1.00;;;;;;5486301;26;20701;-85
2024/04/11 04:34:09;;;;;;;16.00;2.20;;;9.00;1.00;;;;;;5489101;26;20212;-86
2024/04/11 04:36:40;;;;;;;15.43;1.90;;;9.00;1.00;;;;;;5489133;26;20215;-85
2024/04/11 04:39:07;;;;;;;14.98;1.90;;;9.00;1.00;;;;;;5488971;26;20216;-85
2024/04/11 04:41:37;;;;;;;15.68;1.90;;;9.10;1.00;;;;;;5487028;26;20228;-86
2024/04/11 04:44:05;;;;;;;14.20;1.80;;;9.10;1.00;;;;;;5488863;26;20228;-86
2024/04/11 04:46:43;;;;;;;18.75;2.65;;;9.00;1.00;;;;;;5487196;26;20216;-86
2024/04/11 04:49:14;;;;;;;14.05;2.05;;;9.10;1.00;;;;;;5488798;26;20621;-85
2024/04/11 04:51:44;;;;;;;13.30;1.60;;;9.10;1.00;;;;;;5488969;26;20559;-86
2024/04/11 04:54:21;;;;;;;13.02;1.52;;;9.10;1.00;;;;;;5486894;26;20259;-85
2024/04/11 04:56:55;;;;;;;16.98;2.25;;;9.00;1.00;;;;;;5488698;26;20274;-86
2024/04/11 04:59:32;;;;;;;14.95;2.35;;;9.00;1.00;;;;;;5486715;26;20628;-86
2024/04/11 05:02:03;;;;;;;16.40;1.80;;;9.00;1.00;;;;;;5486230;26;20236;-86
2024/04/11 05:04:39;;;;;;;15.73;1.73;;;9.10;1.00;;;;;;5486912;26;20220;-86
2024/04/11 05:07:13;;;;;;;15.35;1.77;;;9.10;1.00;;;;;;5486706;26;20271;-86
2024/04/11 05:10:08;;;;;;;17.20;2.60;;;9.20;1.00;;;;;;5486479;26;20212;-86
2024/04/11 05:12:43;;;;;;;13.77;1.95;;;9.30;1.00;;;;;;5488459;26;20279;-86
2024/04/11 05:15:13;;;;;;;14.57;1.55;;;9.30;1.00;;;;;;5486593;26;20316;-86
2024/04/11 05:18:00;;;;;;;;;;;;;;;;;;;;;
2024/04/11 05:20:27;;;;;;;13.10;1.30;;;9.30;1.00;;;;;;5488008;26;20694;-85
2024/04/11 05:22:58;;;;;;;13.77;1.65;;;9.30;1.00;;;;;;5486300;26;20713;-86
2024/04/11 05:25:36;;;;;;;13.65;1.40;;;9.40;1.00;;;;;;5488336;26;20228;-86
2024/04/11 05:28:07;;;;;;;13.80;1.60;;;9.40;1.00;;;;;;5486916;26;20212;-86
2024/04/11 05:30:40;;;;;;;16.27;1.70;;;9.50;1.00;;;;;;5486161;26;20609;-85
2024/04/11 05:33:09;;;;;;;13.00;1.30;;;9.50;1.00;;;;;;5488958;26;20690;-85
2024/04/11 05:35:36;;;;;;;20.23;2.30;;;9.50;1.00;;;;;;5490084;26;20543;-85
2024/04/11 05:38:02;;;;;;;20.80;1.98;;;9.50;1.00;;;;;;5491875;26;20701;-85
2024/04/11 05:40:28;;;;;;;14.35;1.92;;;9.60;1.00;;;;;;5489920;26;20254;-84
2024/04/11 05:42:54;;;;;;;20.40;2.23;;;9.70;1.00;;;;;;5489692;26;20232;-85
2024/04/11 05:45:23;;;;;;;24.38;1.80;;;9.70;1.00;;;;;;5491680;26;20527;-85
2024/04/11 05:47:51;;;;;;;17.38;1.85;;;9.70;1.00;;;;;;5491790;26;20216;-85
2024/04/11 05:50:17;;;;;;;13.18;1.23;;;9.80;1.00;;;;;;5489959;26;20247;-85
2024/04/11 05:52:43;;;;;;;16.70;1.70;;;9.80;1.00;;;;;;5491870;26;20552;-85
2024/04/11 05:55:10;;;;;;;19.92;1.50;;;9.90;1.00;;;;;;5489905;26;20251;-86
2024/04/11 05:57:41;;;;;;;14.93;1.45;;;10.00;1.00;;;;;;5490235;26;20231;-85
2024/04/11 06:00:08;;;;;;;15.20;1.58;;;10.10;1.00;;;;;;5489788;26;20224;-85
2024/04/11 06:02:38;;;;;;;20.35;2.53;;;10.20;1.00;;;;;;5491780;26;20232;-85
2024/04/11 06:05:14;;;;;;;17.00;2.15;;;10.20;1.00;;;;;;5491399;26;20212;-85
2024/04/11 06:07:39;;;;;;;17.95;1.85;;;10.30;1.00;;;;;;5491360;26;20211;-86
2024/04/11 06:10:11;;;;;;;16.67;2.50;;;10.30;1.00;;;;;;5491733;26;20743;-85
2024/04/11 06:12:45;;;;;;;19.73;1.70;;;10.40;1.00;;;;;;5491605;26;20224;-85
2024/04/11 06:15:14;;;;;;;15.32;2.63;;;10.50;1.00;;;;;;5491457;26;20216;-85
2024/04/11 06:17:41;;;;;;;20.08;1.92;;;10.60;1.00;;;;;;5489492;26;20295;-86
2024/04/11 06:20:15;;;;;;;17.30;1.65;;;10.70;1.00;;;;;;5491669;26;20209;-86
2024/04/11 06:22:55;;;;;;;16.90;1.95;;;10.80;1.00;;;;;;5491380;26;20220;-86
2024/04/11 06:25:21;;;;;;;15.57;1.73;;;10.90;1.00;;;;;;5489482;26;20243;-85
2024/04/11 06:27:58;;;;;;;13.77;1.77;;;10.90;1.00;;;;;;5489192;26;20654;-86
2024/04/11 06:30:25;;;;;;;14.98;1.85;;;11.00;1.00;;;;;;5489274;26;20220;-86
2024/04/11 06:32:52;;;;;;;16.75;1.52;;;11.00;1.00;;;;;;5488506;26;20266;-86
2024/04/11 06:35:18;;;;;;;16.08;2.13;;;11.10;1.00;;;;;;5489156;26;20212;-86
2024/04/11 06:37:44;;;;;;;19.63;1.90;;;11.10;1.00;;;;;;5489025;26;20209;-86
2024/04/11 06:40:13;;;;;;;23.08;2.10;;;11.20;1.00;;;;;;5577728;20;20350;-84
2024/04/11 06:42:46;;;;;;;18.35;2.45;;;11.20;1.00;;;;;;5465929;26;20232;-85
2024/04/11 06:45:14;;;;;;;16.80;2.20;;;11.30;1.00;;;;;;5464737;26;20236;-85
2024/04/11 06:47:41;;;;;;;17.27;2.58;;;11.30;1.00;;;;;;5497135;26;20209;-84
2024/04/11 06:50:10;;;;;;;13.38;1.75;;;11.40;1.00;;;;;;5498261;26;20209;-84
2024/04/11 06:52:36;;;;;;;19.77;2.10;;;11.40;1.00;;;;;;5467731;26;20236;-84
2024/04/11 06:55:05;;;;;;;15.98;2.08;;;11.50;1.00;;;;;;5498539;26;20623;-84
2024/04/11 06:57:37;;;;;;;15.38;1.70;;;11.60;1.00;;;;;;5497856;26;20285;-83
2024/04/11 07:00:04;;;;;;;20.42;1.70;;;11.70;1.00;;;;;;5467278;26;20276;-84
2024/04/11 07:02:30;;;;;;;13.98;1.40;;;11.80;1.00;;;;;;5465388;26;20262;-84
2024/04/11 07:05:02;;;;;;;15.13;1.70;;;11.70;1.00;;;;;;5465838;26;20259;-84
2024/04/11 07:07:28;;;;;;;15.10;1.75;;;11.80;1.00;;;;;;5498128;26;20237;-84
2024/04/11 07:09:58;;;;;;;15.67;1.80;;;11.90;1.00;;;;;;5466684;26;20220;-84
2024/04/11 07:12:29;;;;;;;14.45;1.85;;;12.00;1.00;;;;;;5466025;26;20220;-83
2024/04/11 07:14:55;;;;;;;18.33;1.92;;;12.10;1.00;;;;;;5497612;26;20205;-84
2024/04/11 07:17:27;;;;;;;16.65;1.90;;;12.10;1.00;;;;;;5497748;26;20213;-84
2024/04/11 07:19:54;;;;;;;14.68;1.38;;;12.20;1.00;;;;;;5466493;26;20220;-84
2024/04/11 07:22:24;;;;;;;15.45;1.88;;;12.20;1.00;;;;;;5497626;26;20221;-84
2024/04/11 07:24:50;;;;;;;16.48;1.55;;;12.30;1.00;;;;;;5497404;26;20243;-85
2024/04/11 07:27:17;;;;;;;16.40;1.65;;;12.40;1.00;;;;;;5497978;26;20208;-84
2024/04/11 07:29:45;;;;;;;13.45;1.45;;;12.40;1.00;;;;;;5466650;26;20220;-83
2024/04/11 07:32:11;;;;;;;15.27;1.65;;;12.50;1.00;;;;;;5498272;26;20229;-84
2024/04/11 07:34:38;;;;;;;13.88;1.30;;;12.50;1.00;;;;;;5497161;26;20239;-83
2024/04/11 07:37:04;;;;;;;14.38;1.42;;;12.50;1.00;;;;;;5465606;26;20280;-83
2024/04/11 07:39:29;;;;;;;18.65;1.70;;;12.60;1.00;;;;;;5466146;26;20309;-83
2024/04/11 07:42:18;;;;;;;20.77;2.33;;;12.70;1.00;;;;;;5465356;26;20236;-83
2024/04/11 07:44:44;;;;;;;15.45;1.70;;;12.60;1.00;;;;;;5465589;26;20269;-84
2024/04/11 07:47:13;;;;;;;14.18;1.30;;;12.60;1.00;;;;;;5498079;26;20258;-84
2024/04/11 07:49:40;;;;;;;19.58;1.80;;;12.60;1.00;;;;;;5497801;26;20212;-84
2024/04/11 07:52:10;;;;;;;15.10;1.50;;;12.70;1.00;;;;;;5497696;26;20220;-84
2024/04/11 07:54:36;;;;;;;14.25;1.70;;;12.70;1.00;;;;;;5498098;26;20477;-84
2024/04/11 07:57:02;;;;;;;16.63;1.33;;;12.80;1.00;;;;;;5467580;26;20285;-86
2024/04/11 07:59:28;;;;;;;19.03;1.70;;;12.80;1.00;;;;;;5498336;26;20208;-86
2024/04/11 08:01:53;;;;;;;13.70;1.10;;;12.80;1.00;;;;;;5467548;26;20517;-86
2024/04/11 08:04:19;;;;;;;14.83;1.40;;;12.90;1.00;;;;;;5467545;26;20277;-84
2024/04/11 08:06:45;;;;;;;14.83;1.30;;;12.90;1.00;;;;;;5491319;26;20205;-84
2024/04/11 08:09:12;;;;;;;16.23;1.33;;;12.90;1.00;;;;;;5489229;26;20254;-83
2024/04/11 08:11:38;;;;;;;14.95;1.30;;;13.00;1.00;;;;;;5491998;26;20221;-83
2024/04/11 08:14:04;;;;;;;20.33;1.67;;;13.00;1.00;;;;;;5463614;26;20251;-83
2024/04/11 08:16:34;;;;;;;17.45;1.42;;;13.00;1.00;;;;;;5495832;26;20490;-83
2024/04/11 08:19:04;;;;;;;15.03;1.27;;;12.90;1.00;;;;;;5494830;26;20259;-83
2024/04/11 08:21:31;;;;;;;20.20;1.30;;;12.90;1.00;;;;;;5496308;26;20494;-83
2024/04/11 08:24:00;;;;;;;19.43;1.53;;;13.00;1.00;;;;;;5462040;26;20489;-81
2024/04/11 08:26:25;;;;;;;12.80;1.03;;;12.90;1.00;;;;;;5463707;26;20430;-82
2024/04/11 08:28:52;;;;;;;17.03;1.33;;;12.90;1.00;;;;;;5494007;26;20524;-84
2024/04/11 08:31:18;;;;;;;13.10;1.47;;;13.00;1.00;;;;;;5493916;26;21006;-82
2024/04/11 08:33:43;;;;;;;16.00;1.37;;;13.00;1.00;;;;;;5493738;26;20704;-82
2024/04/11 08:36:10;;;;;;;15.80;1.43;;;13.00;1.00;;;;;;5493490;26;20733;-83
2024/04/11 08:38:40;;;;;;;13.05;1.40;;;13.10;1.00;;;;;;5494957;26;20208;-82
2024/04/11 08:41:12;;;;;;;16.02;1.50;;;13.20;1.00;;;;;;5462433;26;20216;-82
2024/04/11 08:43:45;;;;;;;15.23;1.87;;;13.30;1.00;;;;;;5494911;26;20260;-83
2024/04/11 08:46:11;;;;;;;13.93;1.87;;;13.40;1.00;;;;;;5463280;26;20769;-83
2024/04/11 08:48:38;;;;;;;16.65;1.30;;;13.50;1.00;;;;;;5494286;26;20442;-82
2024/04/11 08:51:21;;;;;;;14.17;1.40;;;13.50;1.00;;;;;;5463837;26;20259;-83
2024/04/11 08:53:54;;;;;;;13.00;1.20;;;13.60;1.00;;;;;;5463618;26;20441;-83
2024/04/11 08:56:20;;;;;;;14.80;1.10;;;13.70;1.00;;;;;;5494664;26;20445;-83
2024/04/11 08:58:47;;;;;;;13.47;1.50;;;13.70;1.00;;;;;;5463016;26;20550;-82
2024/04/11 09:01:16;;;;;;;14.90;1.23;;;13.80;1.00;;;;;;5494466;26;20196;-82
2024/04/11 09:03:47;;;;;;;13.20;1.30;;;13.80;1.00;;;;;;5463143;26;20999;-82
2024/04/11 09:06:24;;;;;;;13.40;1.60;;;13.90;1.00;;;;;;5496473;26;20437;-82
2024/04/11 09:08:53;;;;;;;18.30;1.40;;;14.00;1.00;;;;;;5498135;26;20485;-83
2024/04/11 09:11:22;;;;;;;14.60;1.27;;;14.00;1.00;;;;;;5466334;26;20490;-82
2024/04/11 09:13:48;;;;;;;13.33;1.20;;;14.00;1.00;;;;;;5498669;26;20430;-83
2024/04/11 09:16:15;;;;;;;15.33;1.40;;;14.10;1.00;;;;;;5466674;26;21072;-82
2024/04/11 09:18:43;;;;;;;14.73;1.40;;;14.20;1.00;;;;;;5497036;26;20204;-83
2024/04/11 09:21:08;;;;;;;18.80;1.93;;;14.20;1.00;;;;;;5466034;26;20442;-82
2024/04/11 09:23:43;;;;;;;16.37;1.60;;;14.30;1.00;;;;;;5466086;26;20503;-83
2024/04/11 09:26:10;;;;;;;12.57;1.17;;;14.30;1.00;;;;;;5465360;26;20211;-82
2024/04/11 09:28:38;;;;;;;13.70;2.00;;;14.40;1.00;;;;;;5496881;26;20481;-83
2024/04/11 09:31:04;;;;;;;14.97;1.20;;;14.50;1.00;;;;;;5465441;26;20455;-81
2024/04/11 09:33:34;;;;;;;16.70;1.80;;;14.50;1.00;;;;;;5498026;26;20527;-82
2024/04/11 09:36:07;;;;;;;13.70;1.20;;;14.60;1.00;;;;;;5497456;26;20430;-83
2024/04/11 09:38:36;;;;;;;14.17;1.67;;;14.60;1.00;;;;;;5497829;26;20430;-83
2024/04/11 09:41:11;;;;;;;16.60;1.60;;;14.60;1.00;;;;;;5465593;26;20454;-81
2024/04/11 09:43:41;;;;;;;17.13;1.80;;;14.60;1.00;;;;;;5463722;26;20496;-82
2024/04/11 09:46:08;;;;;;;13.70;1.80;;;14.60;1.00;;;;;;5493997;26;20515;-81
2024/04/11 09:48:38;;;;;;;14.70;1.40;;;14.60;1.00;;;;;;5492859;26;20433;-82
2024/04/11 09:51:10;;;;;;;17.10;1.90;;;14.60;1.00;;;;;;5461867;26;20563;-81
2024/04/11 09:53:36;;;;;;;15.70;1.70;;;14.60;1.00;;;;;;5460049;26;20450;-80
2024/04/11 09:56:08;;;;;;;14.30;1.70;;;14.70;1.00;;;;;;5462407;26;20457;-83
2024/04/11 09:58:38;;;;;;;17.00;1.60;;;14.70;1.00;;;;;;5499382;26;20498;-84
2024/04/11 10:01:31;;;;;;;16.33;1.80;;;14.80;1.00;;;;;;5465211;26;20553;-83
2024/04/11 10:04:21;;;;;;;20.00;1.30;;;15.10;1.00;;;;;;5463814;26;20486;-84
2024/04/11 10:06:52;;;;;;;14.60;1.40;;;15.20;1.00;;;;;;5494312;26;20437;-84
2024/04/11 10:09:18;;;;;;;23.20;2.10;;;15.30;1.00;;;;;;5494099;26;20439;-83
2024/04/11 10:11:51;;;;;;;13.90;1.90;;;15.30;1.00;;;;;;5464269;26;20514;-85
2024/04/11 10:14:20;;;;;;;18.00;1.13;;;15.40;1.00;;;;;;5493650;26;20494;-83
2024/04/11 10:16:55;;;;;;;14.63;1.23;;;15.40;1.00;;;;;;5495053;26;20487;-85
2024/04/11 10:19:26;;;;;;;14.60;1.47;;;15.40;1.00;;;;;;5496670;26;20394;-85
2024/04/11 10:21:55;;;;;;;15.70;1.40;;;15.40;1.00;;;;;;5464250;26;20577;-85
2024/04/11 10:24:28;;;;;;;19.80;1.63;;;15.50;1.00;;;;;;5496109;26;20441;-84
2024/04/11 10:26:57;;;;;;;18.53;1.63;;;15.60;1.00;;;;;;5461583;26;20444;-85
2024/04/11 10:29:26;;;;;;;14.70;1.20;;;15.60;1.00;;;;;;5495417;26;20441;-83
2024/04/11 10:31:56;;;;;;;14.00;1.50;;;15.70;1.00;;;;;;5465117;26;20468;-86
2024/04/11 10:34:34;;;;;;;13.73;1.23;;;15.70;1.00;;;;;;5496097;26;20509;-85
2024/04/11 10:37:12;;;;;;;12.60;1.33;;;15.70;1.00;;;;;;5467408;26;20780;-85
2024/04/11 10:39:38;;;;;;;13.37;1.00;;;15.80;1.00;;;;;;5497998;26;20460;-85
2024/04/11 10:42:08;;;;;;;15.20;1.77;;;15.90;1.00;;;;;;5464219;26;20538;-85
2024/04/11 10:44:35;;;;;;;12.90;1.27;;;15.90;1.00;;;;;;5496886;26;20508;-85
2024/04/11 10:47:07;;;;;;;15.63;1.40;;;15.80;1.00;;;;;;5462851;26;20556;-84
2024/04/11 10:49:34;;;;;;;16.97;1.27;;;15.80;1.00;;;;;;5465234;26;20441;-86
2024/04/11 10:51:59;;;;;;;12.80;1.30;;;15.80;1.00;;;;;;5466524;26;20474;-85
2024/04/11 10:54:26;;;;;;;12.83;1.10;;;15.90;1.00;;;;;;5499132;26;20555;-85
2024/04/11 10:56:54;;;;;;;14.13;1.50;;;15.90;1.00;;;;;;5498333;26;20618;-85
2024/04/11 10:59:26;;;;;;;12.60;1.20;;;16.00;1.00;;;;;;5499210;26;20434;-85
2024/04/11 11:02:07;;;;;;;18.73;1.67;;;16.10;1.00;;;;;;5467243;26;20471;-85
2024/04/11 11:04:34;;;;;;;17.40;1.07;;;16.30;1.00;;;;;;5497760;26;20386;-85
2024/04/11 11:07:09;;;;;;;16.20;1.10;;;16.50;1.00;;;;;;5498558;26;20500;-85
2024/04/11 11:09:42;;;;;;;18.00;1.57;;;16.60;1.00;;;;;;5466009;26;20446;-85
2024/04/11 11:12:11;;;;;;;15.20;1.10;;;16.60;1.00;;;;;;5465620;26;20507;-85
2024/04/11 11:14:37;;;;;;;12.30;1.07;;;16.60;1.00;;;;;;5496602;26;20519;-85
2024/04/11 11:17:07;;;;;;;13.87;1.43;;;16.80;1.00;;;;;;5497548;26;20494;-86
2024/04/11 11:19:34;;;;;;;13.80;0.93;;;16.90;1.00;;;;;;5464374;26;20454;-85
2024/04/11 11:22:00;;;;;;;15.67;1.80;;;16.90;1.00;;;;;;5465234;26;20473;-85
2024/04/11 11:24:29;;;;;;;15.50;1.53;;;16.80;1.00;;;;;;5496130;26;20437;-84
2024/04/11 11:26:57;;;;;;;13.13;1.33;;;16.70;1.00;;;;;;5461320;26;20949;-85
2024/04/11 11:29:27;;;;;;;18.03;1.40;;;16.70;1.00;;;;;;5493189;26;20386;-85
2024/04/11 11:32:01;;;;;;;15.98;1.20;;;16.70;1.00;;;;;;5461163;26;20427;-86
2024/04/11 11:34:31;;;;;;;13.30;1.20;;;16.60;1.00;;;;;;5464286;26;20280;-86
2024/04/11 11:37:00;;;;;;;15.43;1.00;;;16.60;1.00;;;;;;5459929;26;20438;-85
2024/04/11 11:39:33;;;;;;;13.50;1.30;;;16.50;1.00;;;;;;5459306;26;20465;-86
2024/04/11 11:42:08;;;;;;;15.37;1.40;;;16.30;1.00;;;;;;5491992;26;20501;-87
2024/04/11 11:47:33;;;;;;;16.30;1.90;;;16.50;1.00;;;;;;5485502;26;20402;-84
2024/04/11 11:50:16;;;;;;;14.70;1.30;;;16.50;1.00;;;;;;5454767;26;20455;-85
2024/04/11 11:52:44;;;;;;;15.70;2.00;;;16.40;1.00;;;;;;5452108;26;20529;-84
2024/04/11 11:55:16;;;;;;;14.13;1.07;;;16.30;1.00;;;;;;5452017;26;20828;-84
2024/04/11 11:57:54;;;;;;;14.30;1.13;;;16.50;1.00;;;;;;5453135;26;20449;-85
2024/04/11 12:00:25;;;;;;;12.80;1.10;;;16.50;1.00;;;;;;5454245;26;20520;-85
2024/04/11 12:02:56;;;;;;;12.50;0.70;;;16.50;1.00;;;;;;5485316;26;20446;-86
2024/04/11 12:05:26;;;;;;;14.07;1.30;;;16.60;1.00;;;;;;5451867;26;20529;-86
2024/04/11 12:07:59;;;;;;;12.07;0.87;;;16.70;1.00;;;;;;5483399;26;20449;-86
2024/04/11 12:10:55;;;;;;;14.10;1.23;;;16.90;1.00;;;;;;5451867;26;20786;-86
2024/04/11 12:13:19;;;;;;;12.87;1.23;;;17.20;1.00;;;;;;5482866;26;20544;-86
2024/04/11 12:15:51;;;;;;;15.03;1.70;;;17.50;1.00;;;;;;5484904;26;20505;-84
2024/04/11 12:18:22;;;;;;;15.53;1.80;;;17.60;1.00;;;;;;5452344;26;20527;-85
2024/04/11 12:20:52;;;;;;;16.80;1.57;;;17.80;1.00;;;;;;5484451;26;20437;-86
2024/04/11 12:23:22;;;;;;;14.13;1.10;;;17.80;1.00;;;;;;5483152;26;20524;-84
2024/04/11 12:25:49;;;;;;;12.03;1.10;;;17.90;1.00;;;;;;5449696;26;20457;-83
2024/04/11 12:28:19;;;;;;;13.57;1.50;;;18.10;1.00;;;;;;5449450;26;20504;-84
2024/04/11 12:30:59;;;;;;;14.13;1.10;;;18.30;1.00;;;;;;5449620;26;20508;-84
2024/04/11 12:33:27;;;;;;;13.03;1.00;;;18.40;1.00;;;;;;5449199;26;20505;-84
2024/04/11 12:35:56;;;;;;;13.20;1.27;;;18.40;1.00;;;;;;5481469;26;20437;-84
2024/04/11 12:38:24;;;;;;;14.30;1.50;;;18.20;1.00;;;;;;5481406;26;20461;-84
2024/04/11 12:40:50;;;;;;;15.00;1.27;;;18.30;1.00;;;;;;5563765;20;20583;-81
2024/04/11 12:43:19;;;;;;;13.37;1.27;;;18.50;1.00;;;;;;5492428;26;20445;-80
2024/04/11 12:45:54;;;;;;;15.70;1.33;;;18.70;1.00;;;;;;5491904;26;20501;-80
2024/04/11 12:48:21;;;;;;;12.60;1.00;;;18.70;1.00;;;;;;5492209;26;20437;-80
2024/04/11 12:50:52;;;;;;;12.43;0.87;;;18.80;1.00;;;;;;5491996;26;20426;-80
2024/04/11 12:53:21;;;;;;;13.10;0.90;;;18.80;1.00;;;;;;5491508;26;20434;-80
2024/04/11 12:55:55;;;;;;;18.47;1.80;;;18.70;1.00;;;;;;5459641;26;20441;-80
2024/04/11 12:58:25;;;;;;;12.57;1.10;;;18.60;1.00;;;;;;5491712;26;20381;-80
2024/04/11 13:00:58;;;;;;;14.00;1.33;;;18.70;1.00;;;;;;5458957;26;20513;-80
2024/04/11 13:06:22;;;;;;;12.20;1.10;;;18.80;1.00;;;;;;5494458;26;20378;-80
2024/04/11 13:08:48;;;;;;;14.43;1.30;;;19.00;1.00;;;;;;5460728;26;20507;-81
2024/04/11 13:11:36;;;;;;;19.37;1.30;;;19.20;1.00;;;;;;5492177;26;20445;-80
2024/04/11 13:14:09;;;;;;;13.60;1.50;;;19.20;1.00;;;;;;5491732;26;20445;-80
2024/04/11 13:16:50;;;;;;;14.30;1.10;;;19.20;1.00;;;;;;5492062;26;20406;-80